sensor_id;sensor_type;location;lat;lon;timestamp;temperature;humidity
52103;DHT22;38101;53.126;6.878;2023-12-07T15:21:24;2.10;99.90
52103;DHT22;38101;53.126;6.878;2023-12-07T15:23:50;2.20;99.90
52103;DHT22;38101;53.126;6.878;2023-12-07T15:26:16;2.20;99.90
52103;DHT22;38101;53.126;6.878;2023-12-07T15:28:42;2.20;99.90
52103;DHT22;38101;53.126;6.878;2023-12-07T15:31:08;2.20;99.90
52103;DHT22;38101;53.126;6.878;2023-12-07T15:33:34;2.20;99.90
52103;DHT22;38101;53.126;6.878;2023-12-07T15:36:01;2.20;99.90
52103;DHT22;38101;53.126;6.878;2023-12-07T15:38:28;2.20;99.90
52103;DHT22;38101;53.126;6.878;2023-12-07T15:40:55;2.20;99.90
52103;DHT22;38101;53.126;6.878;2023-12-07T15:43:31;2.20;99.90
52103;DHT22;38101;53.126;6.878;2023-12-07T15:45:57;2.20;99.90
52103;DHT22;38101;53.126;6.878;2023-12-07T15:48:23;2.20;99.90
52103;DHT22;38101;53.126;6.878;2023-12-07T15:50:49;2.20;99.90
52103;DHT22;38101;53.126;6.878;2023-12-07T15:53:15;2.20;99.90
52103;DHT22;38101;53.126;6.878;2023-12-07T15:55:42;2.10;99.90
52103;DHT22;38101;53.126;6.878;2023-12-07T15:58:08;2.10;99.90
52103;DHT22;38101;53.126;6.878;2023-12-07T16:00:33;2.20;99.90
52103;DHT22;38101;53.126;6.878;2023-12-07T16:02:59;2.20;99.90
52103;DHT22;38101;53.126;6.878;2023-12-07T16:05:25;2.20;99.90
52103;DHT22;38101;53.126;6.878;2023-12-07T16:07:51;2.10;99.90
52103;DHT22;38101;53.126;6.878;2023-12-07T16:10:17;2.20;99.90
52103;DHT22;38101;53.126;6.878;2023-12-07T16:12:43;2.20;99.90
52103;DHT22;38101;53.126;6.878;2023-12-07T16:15:09;2.20;99.90
52103;DHT22;38101;53.126;6.878;2023-12-07T16:17:34;2.10;99.90
52103;DHT22;38101;53.126;6.878;2023-12-07T16:20:00;2.10;99.90
52103;DHT22;38101;53.126;6.878;2023-12-07T16:22:26;2.20;99.90
52103;DHT22;38101;53.126;6.878;2023-12-07T16:24:52;2.20;99.90
52103;DHT22;38101;53.126;6.878;2023-12-07T16:27:20;2.20;99.90
52103;DHT22;38101;53.126;6.878;2023-12-07T16:29:46;2.10;99.90
52103;DHT22;38101;53.126;6.878;2023-12-07T16:32:12;2.10;99.90
52103;DHT22;38101;53.126;6.878;2023-12-07T16:34:38;2.10;99.90
52103;DHT22;38101;53.126;6.878;2023-12-07T16:37:04;2.10;99.90
52103;DHT22;38101;53.126;6.878;2023-12-07T16:39:31;2.10;99.90
52103;DHT22;38101;53.126;6.878;2023-12-07T16:41:56;2.00;99.90
52103;DHT22;38101;53.126;6.878;2023-12-07T16:44:22;2.00;99.90
52103;DHT22;38101;53.126;6.878;2023-12-07T16:46:48;2.00;99.90
52103;DHT22;38101;53.126;6.878;2023-12-07T16:49:15;2.00;99.90
52103;DHT22;38101;53.126;6.878;2023-12-07T16:51:41;2.00;99.90
52103;DHT22;38101;53.126;6.878;2023-12-07T16:54:07;2.00;99.90
52103;DHT22;38101;53.126;6.878;2023-12-07T16:56:33;1.90;99.90
52103;DHT22;38101;53.126;6.878;2023-12-07T16:58:59;1.90;99.90
52103;DHT22;38101;53.126;6.878;2023-12-07T17:01:25;2.00;99.90
52103;DHT22;38101;53.126;6.878;2023-12-07T17:03:51;1.90;99.90
52103;DHT22;38101;53.126;6.878;2023-12-07T17:06:17;2.00;99.90
52103;DHT22;38101;53.126;6.878;2023-12-07T17:08:44;2.00;99.90
52103;DHT22;38101;53.126;6.878;2023-12-07T17:11:11;1.90;99.90
52103;DHT22;38101;53.126;6.878;2023-12-07T17:13:37;2.00;99.90
52103;DHT22;38101;53.126;6.878;2023-12-07T17:16:03;2.00;99.90
52103;DHT22;38101;53.126;6.878;2023-12-07T17:18:29;1.90;99.90
52103;DHT22;38101;53.126;6.878;2023-12-07T17:20:55;1.90;99.90
52103;DHT22;38101;53.126;6.878;2023-12-07T17:23:21;1.90;99.90
52103;DHT22;38101;53.126;6.878;2023-12-07T17:25:46;1.90;99.90
52103;DHT22;38101;53.126;6.878;2023-12-07T17:28:12;2.00;99.90
52103;DHT22;38101;53.126;6.878;2023-12-07T17:30:38;1.90;99.90
52103;DHT22;38101;53.126;6.878;2023-12-07T17:33:03;1.90;99.90
52103;DHT22;38101;53.126;6.878;2023-12-07T17:35:29;1.90;99.90
52103;DHT22;38101;53.126;6.878;2023-12-07T17:37:55;1.90;99.90
52103;DHT22;38101;53.126;6.878;2023-12-07T17:40:20;1.90;99.90
52103;DHT22;38101;53.126;6.878;2023-12-07T17:42:46;1.90;99.90
52103;DHT22;38101;53.126;6.878;2023-12-07T17:45:12;1.90;99.90
52103;DHT22;38101;53.126;6.878;2023-12-07T17:47:37;1.90;99.90
52103;DHT22;38101;53.126;6.878;2023-12-07T17:50:05;1.90;99.90
52103;DHT22;38101;53.126;6.878;2023-12-07T17:52:31;1.90;99.90
52103;DHT22;38101;53.126;6.878;2023-12-07T17:54:56;1.90;99.90
52103;DHT22;38101;53.126;6.878;2023-12-07T17:57:25;1.80;99.90
52103;DHT22;38101;53.126;6.878;2023-12-07T17:59:51;1.90;99.90
52103;DHT22;38101;53.126;6.878;2023-12-07T18:02:17;1.90;99.90
52103;DHT22;38101;53.126;6.878;2023-12-07T18:04:43;1.90;99.90
52103;DHT22;38101;53.126;6.878;2023-12-07T18:07:08;1.90;99.90
52103;DHT22;38101;53.126;6.878;2023-12-07T18:09:34;1.90;99.90
52103;DHT22;38101;53.126;6.878;2023-12-07T18:12:00;1.90;99.90
52103;DHT22;38101;53.126;6.878;2023-12-07T18:14:26;1.90;99.90
52103;DHT22;38101;53.126;6.878;2023-12-07T18:16:51;1.90;99.90
52103;DHT22;38101;53.126;6.878;2023-12-07T18:19:17;1.90;99.90
52103;DHT22;38101;53.126;6.878;2023-12-07T18:21:43;1.90;99.90
52103;DHT22;38101;53.126;6.878;2023-12-07T18:24:08;1.90;99.90
52103;DHT22;38101;53.126;6.878;2023-12-07T18:26:34;1.90;99.90
52103;DHT22;38101;53.126;6.878;2023-12-07T18:29:04;1.90;99.90
52103;DHT22;38101;53.126;6.878;2023-12-07T18:31:34;2.00;99.90
52103;DHT22;38101;53.126;6.878;2023-12-07T18:34:00;1.80;99.90
52103;DHT22;38101;53.126;6.878;2023-12-07T18:36:26;1.80;99.90
52103;DHT22;38101;53.126;6.878;2023-12-07T18:38:52;1.80;99.90
52103;DHT22;38101;53.126;6.878;2023-12-07T18:41:18;1.80;99.90
52103;DHT22;38101;53.126;6.878;2023-12-07T18:43:43;1.70;99.90
52103;DHT22;38101;53.126;6.878;2023-12-07T18:46:09;1.70;99.90
52103;DHT22;38101;53.126;6.878;2023-12-07T18:48:35;1.70;99.90
52103;DHT22;38101;53.126;6.878;2023-12-07T18:51:04;1.60;99.90
52103;DHT22;38101;53.126;6.878;2023-12-07T18:53:31;1.60;99.90
52103;DHT22;38101;53.126;6.878;2023-12-07T18:55:57;1.60;99.90
52103;DHT22;38101;53.126;6.878;2023-12-07T18:58:24;1.60;99.90
52103;DHT22;38101;53.126;6.878;2023-12-07T19:00:52;1.50;99.90
52103;DHT22;38101;53.126;6.878;2023-12-07T19:03:19;1.50;99.90
52103;DHT22;38101;53.126;6.878;2023-12-07T19:05:44;1.60;99.90
52103;DHT22;38101;53.126;6.878;2023-12-07T19:08:11;1.60;99.90
52103;DHT22;38101;53.126;6.878;2023-12-07T19:10:38;1.60;99.90
52103;DHT22;38101;53.126;6.878;2023-12-07T19:13:06;1.50;99.90
52103;DHT22;38101;53.126;6.878;2023-12-07T19:15:32;1.50;99.90
52103;DHT22;38101;53.126;6.878;2023-12-07T19:17:58;1.50;99.90
52103;DHT22;38101;53.126;6.878;2023-12-07T19:20:24;1.60;99.90
52103;DHT22;38101;53.126;6.878;2023-12-07T19:22:51;1.60;99.90
52103;DHT22;38101;53.126;6.878;2023-12-07T19:25:17;1.60;99.90
52103;DHT22;38101;53.126;6.878;2023-12-07T19:27:43;1.60;99.90
52103;DHT22;38101;53.126;6.878;2023-12-07T19:30:09;1.60;99.90
52103;DHT22;38101;53.126;6.878;2023-12-07T19:32:35;1.60;99.90
52103;DHT22;38101;53.126;6.878;2023-12-07T19:35:00;1.60;99.90
52103;DHT22;38101;53.126;6.878;2023-12-07T19:37:26;1.60;99.90
52103;DHT22;38101;53.126;6.878;2023-12-07T19:39:52;1.50;99.90
52103;DHT22;38101;53.126;6.878;2023-12-07T19:42:18;1.60;99.90
52103;DHT22;38101;53.126;6.878;2023-12-07T19:44:43;1.50;99.90
